Ana Sayfa
METAR-TAF:

METAR-TAF

Havaalanları :

Savoonga, Alaska, Amerika Birleşik Devletleri

Enlem: 63-41N, Boylam: 170-30W, yükseklik: 16 m

Güncel hava durumu gözlemi

Rapor saat 15:04 UTC de 19 dakika önce yapıldı.
Rüzgar kuzey/kuzeybatıdan 15 kt ve 21 kt'a kadar ani rüzgarlar
Sıcaklık -18°C
Nem 77%
Basınç 1002 hPa
Görüş mesafesi: 16.1 km
1300 ft yükseklikte çok bulutlu

METAR: PASA 171504Z AUTO 34015G21KT 10SM OVC013 M18/M21 A2959 RMK AO2 FZRANO $

Saat: 06:23 (15:23 UTC)


TAF: eksik

4.000'den fazla havaalanı için hava durumu gözlemleri ve tahminleri (METAR ve TAF raporları).

Kullanılabilir istasyonlar harita üzerinde sarı ve kırmızı noktalarla gösterilir.

İstasyonun adını görmek için fareyi noktanın üzerinde gezdirin.

Sonrasında hava gözlem ve tahminlerini görmek için tıklayın.

Haritayı değiştirmek için: yaklaştırmak için siyah artı işaretli yeşil düğmeye ve uzaklaştırmak için de eksi işaretli düğmeye hızla tıklayın; bitişik haritalar için yeşil okları kullanın.


METAR-TAF: